Terminal Aerodrome Forecast
Issued by NWS

Home | Current Version | Previous Version | Text Only | Print | Product List | Glossary On
Versions: 1 2 3 4 5 6 7 8 9 10 11 12
000
FTUS45 KABQ 281125
TAFLVS
TAF
KLVS 281125Z 2812/2912 03005KT P6SM SCT200
     FM281800 11011KT P6SM SCT200
     FM282300 13012G19KT P6SM SCT200
     FM290100 13010KT P6SM BKN200
     FM290400 08006KT P6SM OVC200=

USA.gov is the U.S. government's official web portal to all federal, state and local government web resources and services.